Time,TemperatureF,DewpointF,PressureIn,WindDirection,WindDirectionDegrees,WindSpeedMPH,WindSpeedGustMPH,Humidity,HourlyPrecipIn,Conditions,Clouds,dailyrainin,SoftwareType,DateUTC
2013-07-09 00:00:00,69.4,47.2,29.82,NE,46,0.0,4.0,45,0.00,,SKC,0.01,VWS V14.00,2013-07-09 06:00:00,
2013-07-09 00:05:00,69.2,47.0,29.82,NE,46,0.0,0.0,45,0.00,,SKC,0.00,VWS V14.00,2013-07-09 06:05:00,
2013-07-09 00:10:00,69.0,48.0,29.82,NE,46,0.0,1.0,47,0.00,,SKC,0.00,VWS V14.00,2013-07-09 06:10:00,
2013-07-09 00:15:00,68.8,47.2,29.83,NE,46,0.0,1.0,46,0.00,,SKC,0.00,VWS V14.00,2013-07-09 06:15:00,
2013-07-09 00:21:00,68.5,48.1,29.83,NE,46,2.0,2.0,48,0.00,,SKC,0.00,VWS V14.00,2013-07-09 06:21:00,
2013-07-09 00:26:00,67.9,47.5,29.83,NE,46,0.0,2.0,48,0.00,,SKC,0.00,VWS V14.00,2013-07-09 06:26:00,
2013-07-09 00:31:00,67.4,47.0,29.83,NE,46,3.0,4.0,48,0.00,,SKC,0.00,VWS V14.00,2013-07-09 06:31:00,
2013-07-09 00:36:00,67.3,47.5,29.83,NE,46,0.0,3.0,49,0.00,,SKC,0.00,VWS V14.00,2013-07-09 06:36:00,
2013-07-09 00:42:00,66.8,47.6,29.83,NE,46,0.0,3.0,50,0.00,,SKC,0.00,VWS V14.00,2013-07-09 06:42:00,
2013-07-09 00:47:00,66.3,47.7,29.83,NE,46,0.0,3.0,51,0.00,,SKC,0.00,VWS V14.00,2013-07-09 06:47:00,
2013-07-09 00:52:00,65.5,46.9,29.82,NE,46,0.0,3.0,51,0.00,,SKC,0.00,VWS V14.00,2013-07-09 06:52:00,
2013-07-09 00:57:00,64.9,48.4,29.83,NE,46,1.0,3.0,55,0.00,,SKC,0.00,VWS V14.00,2013-07-09 06:57:00,
2013-07-09 01:02:00,64.2,48.7,29.83,NE,46,0.0,0.0,57,0.00,,SKC,0.00,VWS V14.00,2013-07-09 07:02:00,
2013-07-09 01:08:00,63.6,48.1,29.83,NE,46,0.0,2.0,57,0.00,,SKC,0.00,VWS V14.00,2013-07-09 07:08:00,
2013-07-09 01:13:00,63.4,46.0,29.84,NE,46,0.0,2.0,53,0.00,,SKC,0.00,VWS V14.00,2013-07-09 07:13:00,
2013-07-09 01:18:00,63.8,46.8,29.84,NE,46,0.0,3.0,54,0.00,,SKC,0.00,VWS V14.00,2013-07-09 07:18:00,
2013-07-09 01:23:00,64.0,48.0,29.83,NE,46,0.0,3.0,56,0.00,,SKC,0.00,VWS V14.00,2013-07-09 07:23:00,
2013-07-09 01:28:00,64.0,48.0,29.83,NE,46,0.0,3.0,56,0.00,,SKC,0.00,VWS V14.00,2013-07-09 07:28:00,
2013-07-09 01:34:00,63.9,46.0,29.83,NE,46,0.0,3.0,52,0.00,,SKC,0.00,VWS V14.00,2013-07-09 07:34:00,
2013-07-09 01:39:00,64.6,48.1,29.83,NE,45,0.0,4.0,55,0.00,,SKC,0.00,VWS V14.00,2013-07-09 07:39:00,
2013-07-09 01:44:00,65.1,46.0,29.83,NE,53,1.0,5.0,50,0.00,,SKC,0.00,VWS V14.00,2013-07-09 07:44:00,
2013-07-09 01:53:00,65.7,47.1,29.83,NE,53,0.0,5.0,51,0.00,,SKC,0.00,VWS V14.00,2013-07-09 07:53:00,
2013-07-09 01:58:00,65.7,45.5,29.83,ENE,65,0.0,5.0,48,0.00,,SKC,0.00,VWS V14.00,2013-07-09 07:58:00,
2013-07-09 02:03:00,65.7,45.5,29.83,ENE,65,1.0,3.0,48,0.00,,SKC,0.00,VWS V14.00,2013-07-09 08:03:00,
2013-07-09 02:08:00,65.6,46.0,29.83,ENE,65,1.0,3.0,49,0.00,,SKC,0.00,VWS V14.00,2013-07-09 08:08:00,
2013-07-09 02:14:00,65.5,46.9,29.83,ENE,65,0.0,3.0,51,0.00,,SKC,0.00,VWS V14.00,2013-07-09 08:14:00,
2013-07-09 02:19:00,65.2,47.2,29.83,ENE,65,0.0,3.0,52,0.00,,SKC,0.00,VWS V14.00,2013-07-09 08:19:00,
2013-07-09 02:24:00,64.7,46.7,29.83,ENE,65,0.0,3.0,52,0.00,,SKC,0.00,VWS V14.00,2013-07-09 08:24:00,
2013-07-09 02:29:00,64.1,46.1,29.83,ENE,65,0.0,3.0,52,0.00,,SKC,0.00,VWS V14.00,2013-07-09 08:29:00,
2013-07-09 02:35:00,63.7,45.8,29.83,ENE,65,0.0,0.0,52,0.00,,SKC,0.00,VWS V14.00,2013-07-09 08:35:00,
2013-07-09 02:40:00,63.6,45.7,29.83,ENE,65,0.0,0.0,52,0.00,,SKC,0.00,VWS V14.00,2013-07-09 08:40:00,
2013-07-09 02:45:00,63.3,45.9,29.83,ENE,65,0.0,2.0,53,0.00,,SKC,0.00,VWS V14.00,2013-07-09 08:45:00,
2013-07-09 02:50:00,62.9,46.5,29.83,ENE,65,0.0,2.0,55,0.00,,SKC,0.00,VWS V14.00,2013-07-09 08:50:00,
2013-07-09 02:56:00,62.6,47.2,29.83,ENE,65,0.0,2.0,57,0.00,,SKC,0.00,VWS V14.00,2013-07-09 08:56:00,
2013-07-09 03:01:00,62.2,45.8,29.83,ENE,65,0.0,2.0,55,0.00,,SKC,0.00,VWS V14.00,2013-07-09 09:01:00,
2013-07-09 03:06:00,62.0,45.7,29.83,ENE,65,0.0,0.0,55,0.00,,SKC,0.00,VWS V14.00,2013-07-09 09:06:00,
2013-07-09 03:11:00,61.8,46.4,29.83,ENE,65,1.0,1.0,57,0.00,,SKC,0.00,VWS V14.00,2013-07-09 09:11:00,
2013-07-09 03:16:00,61.2,46.3,29.83,ENE,65,2.0,3.0,58,0.00,,SKC,0.00,VWS V14.00,2013-07-09 09:16:00,
2013-07-09 03:22:00,60.7,47.2,29.83,ENE,65,0.0,3.0,61,0.00,,SKC,0.00,VWS V14.00,2013-07-09 09:22:00,
2013-07-09 03:27:00,60.2,46.7,29.83,ENE,65,0.0,3.0,61,0.00,,SKC,0.00,VWS V14.00,2013-07-09 09:27:00,
2013-07-09 03:32:00,59.9,46.0,29.83,ENE,65,0.0,3.0,60,0.00,,SKC,0.00,VWS V14.00,2013-07-09 09:32:00,
2013-07-09 03:37:00,59.9,45.1,29.84,ENE,65,0.0,0.0,58,0.00,,SKC,0.00,VWS V14.00,2013-07-09 09:37:00,
2013-07-09 03:42:00,60.0,46.5,29.84,ENE,65,0.0,2.0,61,0.00,,SKC,0.00,VWS V14.00,2013-07-09 09:42:00,
2013-07-09 03:48:00,59.6,47.4,29.84,North,11,0.0,6.0,64,0.00,,SKC,0.00,VWS V14.00,2013-07-09 09:48:00,
2013-07-09 03:53:00,59.4,46.4,29.84,North,11,2.0,6.0,62,0.00,,SKC,0.00,VWS V14.00,2013-07-09 09:53:00,
2013-07-09 03:58:00,59.1,47.4,29.84,North,11,0.0,6.0,65,0.00,,SKC,0.00,VWS V14.00,2013-07-09 09:58:00,
2013-07-09 04:03:00,58.7,46.6,29.84,NE,34,2.0,3.0,64,0.00,,SKC,0.00,VWS V14.00,2013-07-09 10:03:00,
2013-07-09 04:09:00,58.9,46.3,29.84,NNE,33,0.0,3.0,63,0.00,,SKC,0.00,VWS V14.00,2013-07-09 10:09:00,
2013-07-09 04:14:00,58.9,47.2,29.84,NNE,33,0.0,3.0,65,0.00,,SKC,0.00,VWS V14.00,2013-07-09 10:14:00,
2013-07-09 04:19:00,58.4,46.7,29.84,NNE,33,3.0,3.0,65,0.00,,SKC,0.00,VWS V14.00,2013-07-09 10:19:00,
2013-07-09 04:24:00,58.1,46.4,29.85,NNE,33,0.0,3.0,65,0.00,,SKC,0.00,VWS V14.00,2013-07-09 10:24:00,
2013-07-09 04:29:00,57.9,46.2,29.85,NNE,33,0.0,3.0,65,0.00,,SKC,0.00,VWS V14.00,2013-07-09 10:29:00,
2013-07-09 04:35:00,57.6,46.3,29.85,NNE,33,0.0,3.0,66,0.00,,SKC,0.00,VWS V14.00,2013-07-09 10:35:00,
2013-07-09 04:40:00,57.4,46.9,29.84,NNE,23,0.0,4.0,68,0.00,,SKC,0.00,VWS V14.00,2013-07-09 10:40:00,
2013-07-09 04:45:00,57.2,46.0,29.85,NNE,23,1.0,4.0,66,0.00,,SKC,0.00,VWS V14.00,2013-07-09 10:45:00,
2013-07-09 04:50:00,57.2,47.1,29.85,NNE,23,0.0,4.0,69,0.00,,SKC,0.00,VWS V14.00,2013-07-09 10:50:00,
2013-07-09 04:55:00,57.0,45.8,29.85,NNE,23,0.0,4.0,66,0.00,,SKC,0.00,VWS V14.00,2013-07-09 10:55:00,
2013-07-09 05:01:00,56.8,45.6,29.85,NNE,23,0.0,4.0,66,0.00,,SKC,0.00,VWS V14.00,2013-07-09 11:01:00,
2013-07-09 05:06:00,56.8,45.2,29.85,NNE,23,0.0,0.0,65,0.00,,SKC,0.00,VWS V14.00,2013-07-09 11:06:00,
2013-07-09 05:11:00,56.8,46.0,29.85,NNE,23,0.0,0.0,67,0.00,,SKC,0.00,VWS V14.00,2013-07-09 11:11:00,
2013-07-09 05:16:00,56.6,45.8,29.86,NNE,23,0.0,0.0,67,0.00,,SKC,0.00,VWS V14.00,2013-07-09 11:16:00,
2013-07-09 05:21:00,56.3,45.9,29.86,NNE,23,0.0,1.0,68,0.00,,SKC,0.00,VWS V14.00,2013-07-09 11:21:00,
2013-07-09 05:27:00,55.9,45.9,29.86,NNE,23,0.0,1.0,69,0.00,,SKC,0.00,VWS V14.00,2013-07-09 11:27:00,
2013-07-09 05:32:00,55.3,45.7,29.86,NNE,23,0.0,2.0,70,0.00,,SKC,0.00,VWS V14.00,2013-07-09 11:32:00,
2013-07-09 05:37:00,54.8,46.7,29.86,NNE,23,2.0,3.0,74,0.00,,SKC,0.00,VWS V14.00,2013-07-09 11:37:00,
2013-07-09 05:42:00,54.6,45.8,29.86,NNE,23,0.0,3.0,72,0.00,,SKC,0.00,VWS V14.00,2013-07-09 11:42:00,
2013-07-09 05:48:00,54.9,45.7,29.87,NNE,23,0.0,3.0,71,0.00,,SKC,0.00,VWS V14.00,2013-07-09 11:48:00,
2013-07-09 05:53:00,54.9,46.1,29.87,NNE,23,0.0,3.0,72,0.00,,SKC,0.00,VWS V14.00,2013-07-09 11:53:00,
2013-07-09 05:58:00,54.7,45.9,29.87,NNE,23,2.0,3.0,72,0.00,,SKC,0.00,VWS V14.00,2013-07-09 11:58:00,
2013-07-09 06:03:00,54.5,45.7,29.87,NNE,23,0.0,0.0,72,0.00,,SKC,0.00,VWS V14.00,2013-07-09 12:03:00,
2013-07-09 06:08:00,54.4,45.6,29.87,NNE,23,0.0,1.0,72,0.00,,SKC,0.00,VWS V14.00,2013-07-09 12:08:00,
2013-07-09 06:14:00,54.2,46.1,29.87,NNE,23,0.0,2.0,74,0.00,,SKC,0.00,VWS V14.00,2013-07-09 12:14:00,
2013-07-09 06:19:00,54.1,45.7,29.87,NNE,23,0.0,3.0,73,0.00,,SKC,0.00,VWS V14.00,2013-07-09 12:19:00,
2013-07-09 06:24:00,54.2,45.8,29.88,NNE,23,0.0,3.0,73,0.00,,SKC,0.00,VWS V14.00,2013-07-09 12:24:00,
2013-07-09 06:29:00,54.4,45.6,29.88,NNE,23,0.0,3.0,72,0.00,,SKC,0.00,VWS V14.00,2013-07-09 12:29:00,
2013-07-09 06:34:00,54.9,45.7,29.87,NNE,23,0.0,3.0,71,0.00,,SKC,0.00,VWS V14.00,2013-07-09 12:34:00,
2013-07-09 06:40:00,55.1,45.1,29.87,NNE,23,0.0,3.0,69,0.00,,SKC,0.00,VWS V14.00,2013-07-09 12:40:00,
2013-07-09 06:45:00,55.5,47.0,29.87,NNE,23,0.0,3.0,73,0.00,,SKC,0.00,VWS V14.00,2013-07-09 12:45:00,
2013-07-09 06:50:00,55.5,46.6,29.88,NNE,23,0.0,3.0,72,0.00,,SKC,0.00,VWS V14.00,2013-07-09 12:50:00,
2013-07-09 06:55:00,55.5,46.6,29.88,NNE,23,0.0,3.0,72,0.00,,SKC,0.00,VWS V14.00,2013-07-09 12:55:00,
2013-07-09 07:01:00,55.8,46.9,29.88,NNE,23,0.0,3.0,72,0.00,,SKC,0.00,VWS V14.00,2013-07-09 13:01:00,
2013-07-09 07:06:00,55.9,45.9,29.88,NNE,23,0.0,0.0,69,0.00,,SKC,0.00,VWS V14.00,2013-07-09 13:06:00,
2013-07-09 07:11:00,56.3,47.8,29.88,NNE,23,0.0,0.0,73,0.00,,SKC,0.00,VWS V14.00,2013-07-09 13:11:00,
2013-07-09 07:16:00,56.3,47.8,29.88,NNE,23,1.0,2.0,73,0.00,,SKC,0.00,VWS V14.00,2013-07-09 13:16:00,
2013-07-09 07:22:00,56.2,47.7,29.88,NNE,23,0.0,2.0,73,0.00,,SKC,0.00,VWS V14.00,2013-07-09 13:22:00,
2013-07-09 07:27:00,56.2,47.7,29.88,NNE,23,0.0,2.0,73,0.00,,SKC,0.00,VWS V14.00,2013-07-09 13:27:00,
2013-07-09 07:32:00,56.6,48.4,29.88,NNE,23,0.0,2.0,74,0.00,,SKC,0.00,VWS V14.00,2013-07-09 13:32:00,
2013-07-09 07:37:00,57.1,48.2,29.88,NNE,23,0.0,0.0,72,0.00,,SKC,0.00,VWS V14.00,2013-07-09 13:37:00,
2013-07-09 07:43:00,57.6,47.9,29.88,NNE,23,0.0,0.0,70,0.00,,SKC,0.00,VWS V14.00,2013-07-09 13:43:00,
2013-07-09 07:48:00,57.9,47.0,29.88,NNE,23,0.0,1.0,67,0.00,,SKC,0.00,VWS V14.00,2013-07-09 13:48:00,
2013-07-09 07:53:00,58.5,47.6,29.88,NNE,23,0.0,1.0,67,0.00,,SKC,0.00,VWS V14.00,2013-07-09 13:53:00,
2013-07-09 07:58:00,59.1,47.8,29.88,NNE,23,0.0,1.0,66,0.00,,SKC,0.00,VWS V14.00,2013-07-09 13:58:00,
2013-07-09 08:04:00,59.7,48.7,29.88,NNE,23,0.0,0.0,67,0.00,,SKC,0.00,VWS V14.00,2013-07-09 14:04:00,
2013-07-09 08:09:00,60.8,46.0,29.88,SSE,158,2.0,5.0,58,0.00,,SKC,0.00,VWS V14.00,2013-07-09 14:09:00,
2013-07-09 08:14:00,62.3,46.0,29.88,SSE,157,0.0,5.0,55,0.00,,SKC,0.00,VWS V14.00,2013-07-09 14:14:00,
2013-07-09 08:19:00,63.8,46.4,29.89,SSE,158,0.0,5.0,53,0.00,,SKC,0.00,VWS V14.00,2013-07-09 14:19:00,
2013-07-09 08:25:00,65.3,46.2,29.89,SSE,158,0.0,5.0,50,0.00,,SKC,0.00,VWS V14.00,2013-07-09 14:25:00,
2013-07-09 08:30:00,67.0,47.8,29.89,SSE,158,0.0,5.0,50,0.00,,SKC,0.00,VWS V14.00,2013-07-09 14:30:00,
2013-07-09 08:35:00,67.9,45.8,29.89,SSE,158,0.0,1.0,45,0.00,,SKC,0.00,VWS V14.00,2013-07-09 14:35:00,
2013-07-09 08:40:00,68.4,47.4,29.89,SSE,158,1.0,4.0,47,0.00,,SKC,0.00,VWS V14.00,2013-07-09 14:40:00,
2013-07-09 08:46:00,68.5,48.1,29.89,SSE,159,0.0,4.0,48,0.00,,SKC,0.00,VWS V14.00,2013-07-09 14:46:00,
2013-07-09 08:51:00,68.7,46.5,29.89,SSE,159,2.0,4.0,45,0.00,,SKC,0.00,VWS V14.00,2013-07-09 14:51:00,
2013-07-09 08:56:00,69.2,47.6,29.89,South,178,2.0,7.0,46,0.00,,SKC,0.00,VWS V14.00,2013-07-09 14:56:00,
2013-07-09 09:01:00,69.5,47.2,29.89,SSE,165,2.0,7.0,45,0.00,,SKC,0.00,VWS V14.00,2013-07-09 15:01:00,
2013-07-09 09:07:00,70.1,47.2,29.89,SSE,165,0.0,4.0,44,0.00,,SKC,0.00,VWS V14.00,2013-07-09 15:07:00,
2013-07-09 09:12:00,70.9,47.3,29.89,SSE,165,0.0,4.0,43,0.00,,SKC,0.00,VWS V14.00,2013-07-09 15:12:00,
2013-07-09 09:17:00,71.7,48.0,29.89,SSE,165,0.0,4.0,43,0.00,,SKC,0.00,VWS V14.00,2013-07-09 15:17:00,
2013-07-09 09:22:00,72.6,48.8,29.88,SSE,166,0.0,4.0,43,0.00,,SKC,0.00,VWS V14.00,2013-07-09 15:22:00,
2013-07-09 09:28:00,73.1,48.7,29.88,SSE,166,0.0,4.0,42,0.00,,SKC,0.00,VWS V14.00,2013-07-09 15:28:00,
2013-07-09 09:33:00,73.8,48.7,29.88,SSE,165,2.0,4.0,41,0.00,,SKC,0.00,VWS V14.00,2013-07-09 15:33:00,
2013-07-09 09:38:00,74.2,48.3,29.88,SSE,166,1.0,4.0,40,0.00,,SKC,0.00,VWS V14.00,2013-07-09 15:38:00,
2013-07-09 09:43:00,74.6,48.7,29.88,SSE,158,2.0,5.0,40,0.00,,SKC,0.00,VWS V14.00,2013-07-09 15:43:00,
2013-07-09 09:49:00,74.9,50.3,29.87,SSE,158,0.0,5.0,42,0.00,,SKC,0.00,VWS V14.00,2013-07-09 15:49:00,
2013-07-09 09:54:00,75.4,51.4,29.87,SSE,160,0.0,5.0,43,0.00,,SKC,0.00,VWS V14.00,2013-07-09 15:54:00,
2013-07-09 09:59:00,76.1,50.0,29.87,SSE,161,2.0,5.0,40,0.00,,SKC,0.00,VWS V14.00,2013-07-09 15:59:00,
2013-07-09 10:04:00,76.9,50.8,29.87,South,169,2.0,4.0,40,0.00,,SKC,0.00,VWS V14.00,2013-07-09 16:04:00,
2013-07-09 10:10:00,77.3,49.0,29.86,South,174,2.0,5.0,37,0.00,,SKC,0.00,VWS V14.00,2013-07-09 16:10:00,
2013-07-09 10:15:00,77.6,49.3,29.86,South,175,0.0,5.0,37,0.00,,SKC,0.00,VWS V14.00,2013-07-09 16:15:00,
2013-07-09 10:20:00,77.8,50.9,29.86,South,175,0.0,5.0,39,0.00,,SKC,0.00,VWS V14.00,2013-07-09 16:20:00,
2013-07-09 10:25:00,78.2,49.8,29.86,SSW,201,2.0,5.0,37,0.00,,SKC,0.00,VWS V14.00,2013-07-09 16:25:00,
2013-07-09 10:31:00,78.5,50.8,29.86,SW,216,0.0,5.0,38,0.00,,SKC,0.00,VWS V14.00,2013-07-09 16:31:00,
2013-07-09 10:36:00,79.0,51.2,29.86,SW,223,2.0,3.0,38,0.00,,SKC,0.00,VWS V14.00,2013-07-09 16:36:00,
2013-07-09 10:41:00,79.7,50.4,29.86,SW,223,1.0,3.0,36,0.00,,SKC,0.00,VWS V14.00,2013-07-09 16:41:00,
2013-07-09 10:46:00,80.3,50.2,29.86,SW,223,0.0,3.0,35,0.00,,SKC,0.00,VWS V14.00,2013-07-09 16:46:00,
2013-07-09 10:52:00,80.8,50.6,29.86,South,181,0.0,4.0,35,0.00,,SKC,0.00,VWS V14.00,2013-07-09 16:52:00,
2013-07-09 10:57:00,81.1,50.9,29.85,SSW,203,0.0,4.0,35,0.00,,SKC,0.00,VWS V14.00,2013-07-09 16:57:00,
2013-07-09 11:02:00,81.4,51.9,29.85,SSW,203,1.0,4.0,36,0.00,,SKC,0.00,VWS V14.00,2013-07-09 17:02:00,
2013-07-09 11:07:00,82.0,49.3,29.85,WSW,239,0.0,5.0,32,0.00,,SKC,0.00,VWS V14.00,2013-07-09 17:07:00,
2013-07-09 11:13:00,82.5,48.8,29.85,WSW,239,0.0,5.0,31,0.00,,SKC,0.00,VWS V14.00,2013-07-09 17:13:00,
2013-07-09 11:18:00,83.0,51.0,29.85,WSW,238,0.0,5.0,33,0.00,,SKC,0.00,VWS V14.00,2013-07-09 17:18:00,
2013-07-09 11:23:00,83.5,50.6,29.84,SW,227,3.0,5.0,32,0.00,,SKC,0.00,VWS V14.00,2013-07-09 17:23:00,
2013-07-09 11:28:00,83.9,49.2,29.84,SSW,198,1.0,5.0,30,0.00,,SKC,0.00,VWS V14.00,2013-07-09 17:28:00,
2013-07-09 11:34:00,84.4,48.7,29.84,SSW,198,3.0,3.0,29,0.00,,SKC,0.00,VWS V14.00,2013-07-09 17:34:00,
2013-07-09 11:39:00,84.8,50.8,29.84,SW,220,1.0,4.0,31,0.00,,SKC,0.00,VWS V14.00,2013-07-09 17:39:00,
2013-07-09 11:44:00,85.0,48.3,29.83,SW,224,0.0,4.0,28,0.00,,SKC,0.00,VWS V14.00,2013-07-09 17:44:00,
2013-07-09 11:49:00,85.3,48.5,29.83,SSW,211,0.0,4.0,28,0.00,,SKC,0.00,VWS V14.00,2013-07-09 17:49:00,
2013-07-09 11:55:00,85.6,47.8,29.83,SSW,206,0.0,4.0,27,0.00,,SKC,0.00,VWS V14.00,2013-07-09 17:55:00,
2013-07-09 12:00:00,86.1,47.2,29.83,SSW,206,0.0,4.0,26,0.00,,SKC,0.00,VWS V14.00,2013-07-09 18:00:00,
2013-07-09 12:05:00,86.7,44.5,29.83,SSW,206,3.0,3.0,23,0.00,,SKC,0.00,VWS V14.00,2013-07-09 18:05:00,
2013-07-09 12:11:00,87.3,46.1,29.82,SW,216,0.0,4.0,24,0.00,,SKC,0.00,VWS V14.00,2013-07-09 18:11:00,
2013-07-09 12:16:00,87.0,43.6,29.82,SW,215,0.0,4.0,22,0.00,,SKC,0.00,VWS V14.00,2013-07-09 18:16:00,
2013-07-09 12:21:00,87.4,46.2,29.83,SW,236,0.0,6.0,24,0.00,,SKC,0.00,VWS V14.00,2013-07-09 18:21:00,
2013-07-09 12:26:00,87.1,46.0,29.84,WNW,290,4.0,16.0,24,0.00,,SKC,0.00,VWS V14.00,2013-07-09 18:26:00,
2013-07-09 12:31:00,85.7,44.8,29.84,SW,220,2.0,16.0,24,0.00,,SKC,0.00,VWS V14.00,2013-07-09 18:31:00,
2013-07-09 12:37:00,84.7,45.0,29.84,South,180,1.0,9.0,25,0.00,,SKC,0.00,VWS V14.00,2013-07-09 18:37:00,
2013-07-09 12:42:00,83.7,44.2,29.85,West,262,2.0,14.0,25,0.00,,SKC,0.00,VWS V14.00,2013-07-09 18:42:00,
2013-07-09 12:47:00,82.5,44.2,29.85,WNW,296,2.0,20.0,26,0.00,,SKC,0.00,VWS V14.00,2013-07-09 18:47:00,
2013-07-09 12:52:00,81.9,42.7,29.84,NE,38,9.0,20.0,25,0.00,,SKC,0.00,VWS V14.00,2013-07-09 18:52:00,
2013-07-09 12:58:00,82.2,41.8,29.83,North,355,4.0,20.0,24,0.00,,SKC,0.00,VWS V14.00,2013-07-09 18:58:00,
2013-07-09 13:03:00,82.6,44.3,29.83,WSW,237,0.0,0.0,26,0.00,,SKC,0.00,VWS V14.00,2013-07-09 19:03:00,
2013-07-09 13:08:00,83.6,45.1,29.83,NE,34,5.0,7.0,26,0.00,,SKC,0.00,VWS V14.00,2013-07-09 19:08:00,
2013-07-09 13:14:00,84.5,43.8,29.83,North,10,5.0,7.0,24,0.00,,SKC,0.00,VWS V14.00,2013-07-09 19:14:00,
2013-07-09 13:19:00,85.2,44.4,29.84,West,261,0.0,7.0,24,0.00,,SKC,0.00,VWS V14.00,2013-07-09 19:19:00,
2013-07-09 13:24:00,85.4,45.6,29.84,NNE,24,0.0,9.0,25,0.00,,SKC,0.00,VWS V14.00,2013-07-09 19:24:00,
2013-07-09 13:29:00,84.9,47.2,29.84,North,11,0.0,9.0,27,0.00,,SKC,0.00,VWS V14.00,2013-07-09 19:29:00,
2013-07-09 13:35:00,84.6,44.9,29.84,ENE,74,2.0,8.0,25,0.00,,SKC,0.00,VWS V14.00,2013-07-09 19:35:00,
2013-07-09 13:40:00,84.3,42.5,29.83,NNW,347,0.0,8.0,23,0.00,,SKC,0.00,VWS V14.00,2013-07-09 19:40:00,
2013-07-09 13:45:00,84.5,43.8,29.83,NNW,346,0.0,8.0,24,0.00,,SKC,0.00,VWS V14.00,2013-07-09 19:45:00,
2013-07-09 13:50:00,84.8,45.1,29.82,NNW,346,4.0,8.0,25,0.00,,SKC,0.00,VWS V14.00,2013-07-09 19:50:00,
2013-07-09 13:56:00,84.8,48.1,29.82,WNW,303,0.0,8.0,28,0.00,,SKC,0.00,VWS V14.00,2013-07-09 19:56:00,
2013-07-09 14:01:00,84.6,43.9,29.82,NNE,20,4.0,8.0,24,0.00,,SKC,0.00,VWS V14.00,2013-07-09 20:01:00,
2013-07-09 14:06:00,84.4,43.7,29.82,WNW,298,2.0,11.0,24,0.00,,SKC,0.00,VWS V14.00,2013-07-09 20:06:00,
2013-07-09 14:12:00,84.5,43.8,29.82,North,11,0.0,11.0,24,0.00,,SKC,0.00,VWS V14.00,2013-07-09 20:12:00,
2013-07-09 14:17:00,84.6,42.8,29.81,NNE,13,0.0,11.0,23,0.00,,SKC,0.00,VWS V14.00,2013-07-09 20:17:00,
2013-07-09 14:22:00,84.5,45.9,29.81,North,5,0.0,11.0,26,0.00,,SKC,0.00,VWS V14.00,2013-07-09 20:22:00,
2013-07-09 14:27:00,84.7,48.0,29.81,North,5,0.0,11.0,28,0.00,,SKC,0.00,VWS V14.00,2013-07-09 20:27:00,
2013-07-09 14:33:00,84.8,47.1,29.81,North,5,0.0,0.0,27,0.00,,SKC,0.00,VWS V14.00,2013-07-09 20:33:00,
2013-07-09 14:38:00,84.9,47.2,29.81,North,5,0.0,1.0,27,0.00,,SKC,0.00,VWS V14.00,2013-07-09 20:38:00,
2013-07-09 14:43:00,85.1,52.0,29.81,NNW,335,0.0,6.0,32,0.00,,SKC,0.00,VWS V14.00,2013-07-09 20:43:00,
2013-07-09 14:48:00,85.6,48.8,29.80,NNW,334,0.0,6.0,28,0.00,,SKC,0.00,VWS V14.00,2013-07-09 20:48:00,
2013-07-09 14:54:00,86.3,44.2,29.80,NNW,341,2.0,6.0,23,0.00,,SKC,0.00,VWS V14.00,2013-07-09 20:54:00,
2013-07-09 14:59:00,87.0,42.4,29.80,NNE,13,0.0,6.0,21,0.00,,SKC,0.00,VWS V14.00,2013-07-09 20:59:00,
2013-07-09 15:04:00,87.8,44.3,29.79,NE,40,0.0,4.0,22,0.00,,SKC,0.00,VWS V14.00,2013-07-09 21:04:00,
2013-07-09 15:09:00,88.3,44.7,29.79,NE,40,0.0,4.0,22,0.00,,SKC,0.00,VWS V14.00,2013-07-09 21:09:00,
2013-07-09 15:15:00,88.9,42.7,29.79,NE,53,1.0,4.0,20,0.00,,SKC,0.00,VWS V14.00,2013-07-09 21:15:00,
2013-07-09 15:20:00,88.9,45.2,29.79,NE,38,0.0,7.0,22,0.00,,SKC,0.00,VWS V14.00,2013-07-09 21:20:00,
2013-07-09 15:25:00,89.2,44.2,29.78,NNE,20,0.0,7.0,21,0.00,,SKC,0.00,VWS V14.00,2013-07-09 21:25:00,
2013-07-09 15:30:00,90.0,43.6,29.79,North,360,0.0,7.0,20,0.00,,SKC,0.00,VWS V14.00,2013-07-09 21:30:00,
2013-07-09 15:35:00,90.1,43.7,29.79,North,11,1.0,2.0,20,0.00,,SKC,0.00,VWS V14.00,2013-07-09 21:35:00,
2013-07-09 15:41:00,89.9,42.2,29.79,NNE,19,3.0,5.0,19,0.00,,SKC,0.00,VWS V14.00,2013-07-09 21:41:00,
2013-07-09 15:46:00,89.8,44.7,29.79,NE,35,2.0,5.0,21,0.00,,SKC,0.00,VWS V14.00,2013-07-09 21:46:00,
2013-07-09 15:51:00,89.6,44.5,29.78,NNW,346,0.0,5.0,21,0.00,,SKC,0.00,VWS V14.00,2013-07-09 21:51:00,
2013-07-09 15:56:00,89.6,45.8,29.78,West,259,0.0,7.0,22,0.00,,SKC,0.00,VWS V14.00,2013-07-09 21:56:00,
2013-07-09 16:02:00,88.9,44.0,29.78,WSW,250,1.0,7.0,21,0.00,,SKC,0.00,VWS V14.00,2013-07-09 22:02:00,
2013-07-09 16:07:00,88.4,42.3,29.78,NE,34,7.0,12.0,20,0.00,,SKC,0.00,VWS V14.00,2013-07-09 22:07:00,
2013-07-09 16:12:00,88.2,43.4,29.78,ESE,111,1.0,12.0,21,0.00,,SKC,0.00,VWS V14.00,2013-07-09 22:12:00,
2013-07-09 16:18:00,88.7,43.8,29.78,ESE,121,0.0,12.0,21,0.00,,SKC,0.00,VWS V14.00,2013-07-09 22:18:00,
2013-07-09 16:23:00,89.0,45.3,29.77,NW,314,5.0,12.0,22,0.00,,SKC,0.00,VWS V14.00,2013-07-09 22:23:00,
2013-07-09 16:28:00,89.2,45.4,29.77,East,100,0.0,12.0,22,0.00,,SKC,0.00,VWS V14.00,2013-07-09 22:28:00,
2013-07-09 16:33:00,89.7,39.1,29.77,NE,53,0.0,3.0,17,0.00,,SKC,0.00,VWS V14.00,2013-07-09 22:33:00,
2013-07-09 16:39:00,89.9,44.8,29.77,West,259,0.0,7.0,21,0.00,,SKC,0.00,VWS V14.00,2013-07-09 22:39:00,
2013-07-09 16:44:00,90.3,43.8,29.77,ESE,122,0.0,7.0,20,0.00,,SKC,0.00,VWS V14.00,2013-07-09 22:44:00,
2013-07-09 16:49:00,90.0,42.2,29.76,ESE,121,5.0,7.0,19,0.00,,SKC,0.00,VWS V14.00,2013-07-09 22:49:00,
2013-07-09 16:54:00,90.0,44.9,29.76,North,9,7.0,7.0,21,0.00,,SKC,0.00,VWS V14.00,2013-07-09 22:54:00,
2013-07-09 17:00:00,89.9,43.5,29.76,NNW,346,0.0,7.0,20,0.00,,SKC,0.00,VWS V14.00,2013-07-09 23:00:00,
2013-07-09 17:05:00,90.5,44.0,29.76,SSW,205,2.0,4.0,20,0.00,,SKC,0.00,VWS V14.00,2013-07-09 23:05:00,
2013-07-09 17:10:00,90.6,41.3,29.76,NE,36,0.0,7.0,18,0.00,,SKC,0.00,VWS V14.00,2013-07-09 23:10:00,
2013-07-09 17:15:00,90.5,45.3,29.76,NNE,24,0.0,7.0,21,0.00,,SKC,0.00,VWS V14.00,2013-07-09 23:15:00,
2013-07-09 17:20:00,90.2,43.8,29.75,NNE,24,0.0,7.0,20,0.00,,SKC,0.00,VWS V14.00,2013-07-09 23:20:00,
2013-07-09 17:26:00,89.6,41.9,29.76,NNE,24,2.0,7.0,19,0.00,,SKC,0.00,VWS V14.00,2013-07-09 23:26:00,
2013-07-09 17:31:00,89.3,40.3,29.75,NNE,24,0.0,7.0,18,0.00,,SKC,0.00,VWS V14.00,2013-07-09 23:31:00,
2013-07-09 17:36:00,88.6,43.7,29.75,NNE,24,0.0,2.0,21,0.00,,SKC,0.00,VWS V14.00,2013-07-09 23:36:00,
2013-07-09 17:41:00,88.1,42.0,29.75,NNW,340,1.0,4.0,20,0.00,,SKC,0.00,VWS V14.00,2013-07-09 23:41:00,
2013-07-09 17:42:00,88.1,42.0,29.75,NNW,340,0.0,4.0,20,0.00,,SKC,0.00,VWS V14.00,2013-07-09 23:42:00,
2013-07-09 17:47:00,88.0,43.2,29.75,ENE,59,0.0,4.0,21,0.00,,SKC,0.00,VWS V14.00,2013-07-09 23:47:00,
2013-07-09 17:52:00,88.0,43.2,29.75,NE,48,0.0,4.0,21,0.00,,SKC,0.00,VWS V14.00,2013-07-09 23:52:00,
2013-07-09 17:58:00,88.4,42.3,29.75,NE,47,2.0,4.0,20,0.00,,SKC,0.00,VWS V14.00,2013-07-09 23:58:00,
2013-07-09 18:03:00,88.5,42.3,29.74,NE,39,0.0,0.0,20,0.00,,SKC,0.00,VWS V14.00,2013-07-10 00:03:00,
2013-07-09 18:08:00,88.8,46.3,29.74,NE,39,0.0,2.0,23,0.00,,SKC,0.00,VWS V14.00,2013-07-10 00:08:00,
2013-07-09 18:13:00,89.2,48.8,29.74,NE,39,0.0,2.0,25,0.00,,SKC,0.00,VWS V14.00,2013-07-10 00:13:00,
2013-07-09 18:19:00,89.4,52.0,29.74,NE,39,0.0,2.0,28,0.00,,SKC,0.00,VWS V14.00,2013-07-10 00:19:00,
2013-07-09 18:24:00,89.7,40.6,29.74,NE,39,0.0,2.0,18,0.00,,SKC,0.00,VWS V14.00,2013-07-10 00:24:00,
2013-07-09 18:29:00,90.6,42.7,29.74,NE,38,1.0,2.0,19,0.00,,SKC,0.00,VWS V14.00,2013-07-10 00:29:00,
2013-07-09 18:34:00,91.0,40.2,29.73,NE,38,0.0,1.0,17,0.00,,SKC,0.00,VWS V14.00,2013-07-10 00:34:00,
2013-07-09 18:40:00,90.9,40.1,29.73,NE,38,1.0,3.0,17,0.00,,SKC,0.00,VWS V14.00,2013-07-10 00:40:00,
2013-07-09 18:45:00,90.2,45.0,29.73,NE,38,0.0,3.0,21,0.00,,SKC,0.00,VWS V14.00,2013-07-10 00:45:00,
2013-07-09 18:50:00,89.4,41.8,29.73,NE,38,0.0,3.0,19,0.00,,SKC,0.00,VWS V14.00,2013-07-10 00:50:00,
2013-07-09 18:55:00,89.0,51.7,29.73,NE,38,0.0,3.0,28,0.00,,SKC,0.00,VWS V14.00,2013-07-10 00:55:00,
2013-07-09 19:00:00,88.8,42.6,29.73,NE,38,0.0,3.0,20,0.00,,SKC,0.00,VWS V14.00,2013-07-10 01:00:00,
2013-07-09 19:06:00,88.7,47.3,29.73,NE,38,0.0,0.0,24,0.00,,SKC,0.00,VWS V14.00,2013-07-10 01:06:00,
2013-07-09 19:11:00,88.8,43.9,29.73,NE,38,0.0,0.0,21,0.00,,SKC,0.00,VWS V14.00,2013-07-10 01:11:00,
2013-07-09 19:16:00,89.0,42.8,29.73,NE,38,0.0,1.0,20,0.00,,SKC,0.00,VWS V14.00,2013-07-10 01:16:00,
2013-07-09 19:21:00,89.3,46.7,29.73,NE,38,0.0,1.0,23,0.00,,SKC,0.00,VWS V14.00,2013-07-10 01:21:00,
2013-07-09 19:26:00,89.2,47.7,29.72,NE,38,0.0,1.0,24,0.00,,SKC,0.00,VWS V14.00,2013-07-10 01:26:00,
2013-07-09 19:32:00,88.6,48.3,29.72,NE,38,0.0,1.0,25,0.00,,SKC,0.00,VWS V14.00,2013-07-10 01:32:00,
2013-07-09 19:37:00,87.8,47.6,29.72,NE,38,0.0,0.0,25,0.00,,SKC,0.00,VWS V14.00,2013-07-10 01:37:00,
2013-07-09 19:42:00,86.7,48.8,29.72,NE,38,0.0,1.0,27,0.00,,SKC,0.00,VWS V14.00,2013-07-10 01:42:00,
2013-07-09 19:48:00,84.8,50.0,29.72,NE,38,0.0,2.0,30,0.00,,SKC,0.00,VWS V14.00,2013-07-10 01:48:00,
2013-07-09 19:53:00,83.2,52.7,29.72,NE,38,0.0,2.0,35,0.00,,SKC,0.00,VWS V14.00,2013-07-10 01:53:00,
2013-07-09 19:58:00,81.6,49.7,29.72,NE,38,0.0,2.0,33,0.00,,SKC,0.00,VWS V14.00,2013-07-10 01:58:00,
2013-07-09 20:03:00,80.2,49.3,29.72,NE,38,0.0,1.0,34,0.00,,SKC,0.00,VWS V14.00,2013-07-10 02:03:00,
2013-07-09 20:08:00,79.0,49.8,29.72,NE,38,2.0,2.0,36,0.00,,SKC,0.00,VWS V14.00,2013-07-10 02:08:00,
2013-07-09 20:14:00,77.8,48.7,29.72,NE,38,2.0,3.0,36,0.00,,SKC,0.00,VWS V14.00,2013-07-10 02:14:00,
2013-07-09 20:19:00,77.1,47.4,29.72,NE,38,3.0,4.0,35,0.00,,SKC,0.00,VWS V14.00,2013-07-10 02:19:00,
2013-07-09 20:24:00,76.6,46.9,29.72,NE,36,2.0,4.0,35,0.00,,SKC,0.00,VWS V14.00,2013-07-10 02:24:00,
2013-07-09 20:29:00,76.0,49.3,29.73,NE,36,0.0,4.0,39,0.00,,SKC,0.00,VWS V14.00,2013-07-10 02:29:00,
2013-07-09 20:35:00,75.4,48.0,29.73,NE,36,0.0,2.0,38,0.00,,SKC,0.00,VWS V14.00,2013-07-10 02:35:00,
2013-07-09 20:40:00,74.9,46.9,29.73,NE,36,0.0,2.0,37,0.00,,SKC,0.00,VWS V14.00,2013-07-10 02:40:00,
2013-07-09 20:45:00,74.5,47.2,29.73,NE,36,0.0,2.0,38,0.00,,SKC,0.00,VWS V14.00,2013-07-10 02:45:00,
2013-07-09 20:50:00,74.1,46.9,29.74,NE,36,0.0,2.0,38,0.00,,SKC,0.00,VWS V14.00,2013-07-10 02:50:00,
2013-07-09 20:55:00,73.5,44.9,29.74,East,101,0.0,4.0,36,0.00,,SKC,0.00,VWS V14.00,2013-07-10 02:55:00,
2013-07-09 21:01:00,73.0,45.2,29.74,East,101,0.0,4.0,37,0.00,,SKC,0.00,VWS V14.00,2013-07-10 03:01:00,
2013-07-09 21:06:00,72.5,46.2,29.75,East,101,0.0,1.0,39,0.00,,SKC,0.00,VWS V14.00,2013-07-10 03:06:00,
2013-07-09 21:11:00,72.3,44.6,29.74,East,101,0.0,4.0,37,0.00,,SKC,0.00,VWS V14.00,2013-07-10 03:11:00,
2013-07-09 21:16:00,72.2,45.9,29.75,East,101,0.0,4.0,39,0.00,,SKC,0.00,VWS V14.00,2013-07-10 03:16:00,
2013-07-09 21:22:00,72.0,45.7,29.75,East,101,0.0,4.0,39,0.00,,SKC,0.00,VWS V14.00,2013-07-10 03:22:00,
2013-07-09 21:27:00,71.7,45.5,29.75,East,101,0.0,4.0,39,0.00,,SKC,0.00,VWS V14.00,2013-07-10 03:27:00,
2013-07-09 21:32:00,71.3,44.4,29.75,East,101,0.0,4.0,38,0.00,,SKC,0.00,VWS V14.00,2013-07-10 03:32:00,
2013-07-09 21:37:00,71.1,42.8,29.76,East,101,0.0,4.0,36,0.00,,SKC,0.00,VWS V14.00,2013-07-10 03:37:00,
2013-07-09 21:43:00,71.0,45.5,29.76,East,101,0.0,4.0,40,0.00,,SKC,0.00,VWS V14.00,2013-07-10 03:43:00,
2013-07-09 21:48:00,71.4,43.1,29.76,NNE,14,2.0,4.0,36,0.00,,SKC,0.00,VWS V14.00,2013-07-10 03:48:00,
2013-07-09 21:53:00,72.4,42.5,29.77,NE,34,0.0,5.0,34,0.00,,SKC,0.00,VWS V14.00,2013-07-10 03:53:00,
2013-07-09 21:58:00,73.0,42.2,29.77,NNE,29,2.0,6.0,33,0.00,,SKC,0.00,VWS V14.00,2013-07-10 03:58:00,
2013-07-09 22:01:00,73.7,42.0,29.77,NE,35,2.0,9.0,32,0.00,,SKC,0.00,VWS V14.00,2013-07-10 04:01:00,
2013-07-09 22:02:00,74.0,41.5,29.77,NE,51,0.0,0.0,31,0.00,,SKC,0.00,VWS V14.00,2013-07-10 04:02:00,
2013-07-09 22:03:00,74.2,41.7,29.77,East,82,1.0,1.0,31,0.00,,SKC,0.00,VWS V14.00,2013-07-10 04:03:00,
2013-07-09 22:04:00,74.3,41.7,29.77,East,82,0.0,2.0,31,0.00,,SKC,0.00,VWS V14.00,2013-07-10 04:04:00,
2013-07-09 22:09:00,74.5,41.9,29.77,NE,49,4.0,6.0,31,0.00,,SKC,0.00,VWS V14.00,2013-07-10 04:09:00,
2013-07-09 22:14:00,74.9,42.3,29.77,NE,42,0.0,6.0,31,0.00,,SKC,0.00,VWS V14.00,2013-07-10 04:14:00,
2013-07-09 22:19:00,74.9,42.3,29.77,NE,42,0.0,6.0,31,0.00,,SKC,0.00,VWS V14.00,2013-07-10 04:19:00,
2013-07-09 22:25:00,74.3,41.7,29.77,NE,37,3.0,6.0,31,0.00,,SKC,0.00,VWS V14.00,2013-07-10 04:25:00,
2013-07-09 22:30:00,74.4,41.8,29.77,NNE,26,3.0,6.0,31,0.00,,SKC,0.00,VWS V14.00,2013-07-10 04:30:00,
2013-07-09 22:35:00,74.3,41.7,29.77,NNE,33,4.0,5.0,31,0.00,,SKC,0.00,VWS V14.00,2013-07-10 04:35:00,
2013-07-09 22:40:00,74.3,41.7,29.77,ENE,60,0.0,5.0,31,0.00,,SKC,0.00,VWS V14.00,2013-07-10 04:40:00,
2013-07-09 22:45:00,73.9,41.4,29.77,NE,45,2.0,7.0,31,0.00,,SKC,0.00,VWS V14.00,2013-07-10 04:45:00,
2013-07-09 22:51:00,73.5,41.0,29.77,NE,47,4.0,7.0,31,0.00,,SKC,0.00,VWS V14.00,2013-07-10 04:51:00,
2013-07-09 22:56:00,73.1,42.3,29.78,ENE,74,0.0,7.0,33,0.00,,SKC,0.00,VWS V14.00,2013-07-10 04:56:00,
2013-07-09 23:01:00,72.9,41.3,29.77,NE,44,3.0,7.0,32,0.00,,SKC,0.00,VWS V14.00,2013-07-10 05:01:00,
2013-07-09 23:06:00,73.1,43.1,29.78,North,9,0.0,6.0,34,0.00,,SKC,0.00,VWS V14.00,2013-07-10 05:06:00,
2013-07-09 23:12:00,73.0,41.4,29.77,East,79,0.0,6.0,32,0.00,,SKC,0.00,VWS V14.00,2013-07-10 05:12:00,
2013-07-09 23:17:00,72.7,41.2,29.77,NNE,32,0.0,6.0,32,0.00,,SKC,0.00,VWS V14.00,2013-07-10 05:17:00,
2013-07-09 23:22:00,72.6,41.1,29.77,NNE,32,3.0,6.0,32,0.00,,SKC,0.00,VWS V14.00,2013-07-10 05:22:00,
2013-07-09 23:27:00,72.3,40.8,29.77,ESE,110,0.0,6.0,32,0.00,,SKC,0.00,VWS V14.00,2013-07-10 05:27:00,
2013-07-09 23:33:00,71.5,40.9,29.78,NE,55,2.0,2.0,33,0.00,,SKC,0.00,VWS V14.00,2013-07-10 05:33:00,
2013-07-09 23:38:00,70.6,40.9,29.78,NE,55,1.0,3.0,34,0.00,,SKC,0.00,VWS V14.00,2013-07-10 05:38:00,
2013-07-09 23:43:00,69.7,42.3,29.78,NE,55,0.0,3.0,37,0.00,,SKC,0.00,VWS V14.00,2013-07-10 05:43:00,
2013-07-09 23:48:00,69.1,41.0,29.78,NE,55,0.0,4.0,36,0.00,,SKC,0.00,VWS V14.00,2013-07-10 05:48:00,
2013-07-09 23:53:00,68.6,42.7,29.78,NE,55,0.0,4.0,39,0.00,,SKC,0.00,VWS V14.00,2013-07-10 05:53:00,
2013-07-09 23:59:00,67.9,42.1,29.78,NE,55,0.0,4.0,39,0.00,,SKC,0.00,VWS V14.00,2013-07-10 05:59:00,